GMFF

Saïss Airport

Fes, Morocco
METAR GMFF 201230Z VRB03KT 9999 SCT033 SCT100 21/15 Q1015 NOSIG
Observed Flight Rules
Oct-20 @ 12:30 UTC (27 minutes ago) Visual Flight Rules
Wind Visibility Clouds
Variable at 3 knots 10,000+ meters
  • Scattered at 3,300' AGL
  • Scattered at 10,000' AGL
Temperatures Readings
Current 21°C / 70°F
Dewpoint 15°C / 59°F
Humidity 69%
Altimeter 29.97" Hg
Pressure 1015 hPa
Elevation 579
METAR GMFF 201230Z VRB03KT 9999 SCT033 SCT100 21/15 Q1015 NOSIG
Observed Flight Rules
Oct-20 @ 12:30 UTC
(27 minutes ago)
VFR
Wind Visibility
Variable at 3 knots 10,000+ meters
Clouds
  • Scattered at 3,300' AGL
  • Scattered at 10,000' AGL
Temperature Dewpoint
21°C / 70°F 15°C / 59°F
Humidity Altimeter Pressure
69% 29.97" Hg 1015 hPa